sensor_id;sensor_type;location;lat;lon;timestamp;temperature;humidity
26505;DHT22;19493;48.042;7.584;2022-07-03T00:01:41;17.70;99.90
26505;DHT22;19493;48.042;7.584;2022-07-03T00:04:06;17.70;99.90
26505;DHT22;19493;48.042;7.584;2022-07-03T00:06:32;17.60;99.90
26505;DHT22;19493;48.042;7.584;2022-07-03T00:09:00;17.50;99.90
26505;DHT22;19493;48.042;7.584;2022-07-03T00:11:26;17.50;99.90
26505;DHT22;19493;48.042;7.584;2022-07-03T00:13:51;17.40;99.90
26505;DHT22;19493;48.042;7.584;2022-07-03T00:16:17;17.30;99.90
26505;DHT22;19493;48.042;7.584;2022-07-03T00:18:43;17.30;99.90
26505;DHT22;19493;48.042;7.584;2022-07-03T00:21:09;17.30;99.90
26505;DHT22;19493;48.042;7.584;2022-07-03T00:23:54;17.30;99.90
26505;DHT22;19493;48.042;7.584;2022-07-03T00:26:21;17.30;99.90
26505;DHT22;19493;48.042;7.584;2022-07-03T00:28:47;17.30;99.90
26505;DHT22;19493;48.042;7.584;2022-07-03T00:31:14;17.30;99.90
26505;DHT22;19493;48.042;7.584;2022-07-03T00:33:41;17.30;99.90
26505;DHT22;19493;48.042;7.584;2022-07-03T00:36:09;17.30;99.90
26505;DHT22;19493;48.042;7.584;2022-07-03T00:38:40;17.30;99.90
26505;DHT22;19493;48.042;7.584;2022-07-03T00:41:06;17.20;99.90
26505;DHT22;19493;48.042;7.584;2022-07-03T00:43:32;17.10;99.90
26505;DHT22;19493;48.042;7.584;2022-07-03T00:46:06;17.00;99.90
26505;DHT22;19493;48.042;7.584;2022-07-03T00:48:36;16.90;99.90
26505;DHT22;19493;48.042;7.584;2022-07-03T00:51:06;16.80;99.90
26505;DHT22;19493;48.042;7.584;2022-07-03T00:53:32;16.60;99.90
26505;DHT22;19493;48.042;7.584;2022-07-03T00:56:04;16.60;99.90
26505;DHT22;19493;48.042;7.584;2022-07-03T00:58:32;16.50;99.90
26505;DHT22;19493;48.042;7.584;2022-07-03T01:01:00;16.40;99.90
26505;DHT22;19493;48.042;7.584;2022-07-03T01:03:32;16.30;99.90
26505;DHT22;19493;48.042;7.584;2022-07-03T01:06:03;16.30;99.90
26505;DHT22;19493;48.042;7.584;2022-07-03T01:09:02;16.20;99.90
26505;DHT22;19493;48.042;7.584;2022-07-03T01:11:37;16.10;99.90
26505;DHT22;19493;48.042;7.584;2022-07-03T01:14:29;16.10;99.90
26505;DHT22;19493;48.042;7.584;2022-07-03T01:17:00;16.10;99.90
26505;DHT22;19493;48.042;7.584;2022-07-03T01:19:37;16.10;99.90
26505;DHT22;19493;48.042;7.584;2022-07-03T01:22:32;16.10;99.90
26505;DHT22;19493;48.042;7.584;2022-07-03T01:25:24;16.00;99.90
26505;DHT22;19493;48.042;7.584;2022-07-03T01:27:58;16.00;99.90
26505;DHT22;19493;48.042;7.584;2022-07-03T01:30:35;16.00;99.90
26505;DHT22;19493;48.042;7.584;2022-07-03T01:35:35;15.90;99.90
26505;DHT22;19493;48.042;7.584;2022-07-03T01:38:07;15.80;99.90
26505;DHT22;19493;48.042;7.584;2022-07-03T01:40:35;15.80;99.90
26505;DHT22;19493;48.042;7.584;2022-07-03T01:43:04;15.90;99.90
26505;DHT22;19493;48.042;7.584;2022-07-03T01:45:32;15.90;99.90
26505;DHT22;19493;48.042;7.584;2022-07-03T01:48:00;15.90;99.90
26505;DHT22;19493;48.042;7.584;2022-07-03T01:50:29;16.00;99.90
26505;DHT22;19493;48.042;7.584;2022-07-03T01:52:56;16.00;99.90
26505;DHT22;19493;48.042;7.584;2022-07-03T01:55:24;16.00;99.90
26505;DHT22;19493;48.042;7.584;2022-07-03T01:57:50;16.00;99.90
26505;DHT22;19493;48.042;7.584;2022-07-03T02:00:21;16.00;99.90
26505;DHT22;19493;48.042;7.584;2022-07-03T02:02:55;16.10;99.90
26505;DHT22;19493;48.042;7.584;2022-07-03T02:05:38;16.00;99.90
26505;DHT22;19493;48.042;7.584;2022-07-03T02:10:34;15.90;99.90
26505;DHT22;19493;48.042;7.584;2022-07-03T02:13:01;15.90;99.90
26505;DHT22;19493;48.042;7.584;2022-07-03T02:15:33;15.80;99.90
26505;DHT22;19493;48.042;7.584;2022-07-03T02:20:46;15.70;99.90
26505;DHT22;19493;48.042;7.584;2022-07-03T02:23:15;15.60;99.90
26505;DHT22;19493;48.042;7.584;2022-07-03T02:25:44;15.60;99.90
26505;DHT22;19493;48.042;7.584;2022-07-03T02:28:22;15.50;99.90
26505;DHT22;19493;48.042;7.584;2022-07-03T02:30:55;15.50;99.90
26505;DHT22;19493;48.042;7.584;2022-07-03T02:33:25;15.60;99.90
26505;DHT22;19493;48.042;7.584;2022-07-03T02:35:54;15.50;99.90
26505;DHT22;19493;48.042;7.584;2022-07-03T02:38:21;15.50;99.90
26505;DHT22;19493;48.042;7.584;2022-07-03T02:43:59;15.50;99.90
26505;DHT22;19493;48.042;7.584;2022-07-03T02:46:38;15.40;99.90
26505;DHT22;19493;48.042;7.584;2022-07-03T02:49:45;15.40;99.90
26505;DHT22;19493;48.042;7.584;2022-07-03T03:00:42;15.60;99.90
26505;DHT22;19493;48.042;7.584;2022-07-03T03:03:17;15.60;99.90
26505;DHT22;19493;48.042;7.584;2022-07-03T03:05:47;15.60;99.90
26505;DHT22;19493;48.042;7.584;2022-07-03T03:11:13;15.40;99.90
26505;DHT22;19493;48.042;7.584;2022-07-03T03:13:47;15.30;99.90
26505;DHT22;19493;48.042;7.584;2022-07-03T03:16:14;15.30;99.90
26505;DHT22;19493;48.042;7.584;2022-07-03T03:18:40;15.30;99.90
26505;DHT22;19493;48.042;7.584;2022-07-03T03:21:10;15.30;99.90
26505;DHT22;19493;48.042;7.584;2022-07-03T03:26:04;15.10;99.90
26505;DHT22;19493;48.042;7.584;2022-07-03T03:28:30;15.20;99.90
26505;DHT22;19493;48.042;7.584;2022-07-03T03:30:56;15.20;99.90
26505;DHT22;19493;48.042;7.584;2022-07-03T03:33:22;15.20;99.90
26505;DHT22;19493;48.042;7.584;2022-07-03T03:35:48;15.20;99.90
26505;DHT22;19493;48.042;7.584;2022-07-03T03:38:13;15.10;99.90
26505;DHT22;19493;48.042;7.584;2022-07-03T03:40:40;15.10;99.90
26505;DHT22;19493;48.042;7.584;2022-07-03T03:43:06;15.00;99.90
26505;DHT22;19493;48.042;7.584;2022-07-03T03:45:31;14.90;99.90
26505;DHT22;19493;48.042;7.584;2022-07-03T03:47:57;14.90;99.90
26505;DHT22;19493;48.042;7.584;2022-07-03T03:50:23;14.90;99.90
26505;DHT22;19493;48.042;7.584;2022-07-03T03:52:49;14.90;99.90
26505;DHT22;19493;48.042;7.584;2022-07-03T03:55:15;14.90;99.90
26505;DHT22;19493;48.042;7.584;2022-07-03T03:57:40;14.90;99.90
26505;DHT22;19493;48.042;7.584;2022-07-03T04:00:07;14.90;99.90
26505;DHT22;19493;48.042;7.584;2022-07-03T04:02:33;14.90;99.90
26505;DHT22;19493;48.042;7.584;2022-07-03T04:04:58;15.00;99.90
26505;DHT22;19493;48.042;7.584;2022-07-03T04:07:24;14.90;99.90
26505;DHT22;19493;48.042;7.584;2022-07-03T04:09:49;15.00;99.90
26505;DHT22;19493;48.042;7.584;2022-07-03T04:12:15;15.10;99.90
26505;DHT22;19493;48.042;7.584;2022-07-03T04:14:41;15.10;99.90
26505;DHT22;19493;48.042;7.584;2022-07-03T04:17:06;15.20;99.90
26505;DHT22;19493;48.042;7.584;2022-07-03T04:19:32;15.20;99.90
26505;DHT22;19493;48.042;7.584;2022-07-03T04:21:58;15.30;99.90
26505;DHT22;19493;48.042;7.584;2022-07-03T04:24:23;15.30;99.90
26505;DHT22;19493;48.042;7.584;2022-07-03T04:26:49;15.40;99.90
26505;DHT22;19493;48.042;7.584;2022-07-03T04:29:14;15.50;99.90
26505;DHT22;19493;48.042;7.584;2022-07-03T04:31:40;15.50;99.90
26505;DHT22;19493;48.042;7.584;2022-07-03T04:34:06;15.60;99.90
26505;DHT22;19493;48.042;7.584;2022-07-03T04:36:32;15.70;99.90
26505;DHT22;19493;48.042;7.584;2022-07-03T04:38:57;15.70;99.90
26505;DHT22;19493;48.042;7.584;2022-07-03T04:41:23;15.90;99.90
26505;DHT22;19493;48.042;7.584;2022-07-03T04:43:48;16.00;99.90
26505;DHT22;19493;48.042;7.584;2022-07-03T04:46:14;16.00;99.90
26505;DHT22;19493;48.042;7.584;2022-07-03T04:48:40;16.20;99.90
26505;DHT22;19493;48.042;7.584;2022-07-03T04:51:05;16.20;99.90
26505;DHT22;19493;48.042;7.584;2022-07-03T04:53:31;16.30;99.90
26505;DHT22;19493;48.042;7.584;2022-07-03T04:55:56;16.40;99.90
26505;DHT22;19493;48.042;7.584;2022-07-03T04:58:22;16.50;99.90
26505;DHT22;19493;48.042;7.584;2022-07-03T05:00:47;16.60;99.90
26505;DHT22;19493;48.042;7.584;2022-07-03T05:03:13;16.70;99.90
26505;DHT22;19493;48.042;7.584;2022-07-03T05:05:39;16.80;99.90
26505;DHT22;19493;48.042;7.584;2022-07-03T05:08:04;16.90;99.90
26505;DHT22;19493;48.042;7.584;2022-07-03T05:10:30;17.00;99.90
26505;DHT22;19493;48.042;7.584;2022-07-03T05:12:56;17.10;99.90
26505;DHT22;19493;48.042;7.584;2022-07-03T05:15:21;17.30;99.90
26505;DHT22;19493;48.042;7.584;2022-07-03T05:17:48;17.40;99.90
26505;DHT22;19493;48.042;7.584;2022-07-03T05:20:14;17.60;99.90
26505;DHT22;19493;48.042;7.584;2022-07-03T05:22:59;17.80;99.90
26505;DHT22;19493;48.042;7.584;2022-07-03T05:25:26;18.00;99.90
26505;DHT22;19493;48.042;7.584;2022-07-03T05:27:52;18.20;99.90
26505;DHT22;19493;48.042;7.584;2022-07-03T05:30:24;18.40;99.90
26505;DHT22;19493;48.042;7.584;2022-07-03T05:32:51;18.50;99.90
26505;DHT22;19493;48.042;7.584;2022-07-03T05:35:16;18.90;99.90
26505;DHT22;19493;48.042;7.584;2022-07-03T05:37:42;19.30;99.90
26505;DHT22;19493;48.042;7.584;2022-07-03T05:40:11;19.70;99.90
26505;DHT22;19493;48.042;7.584;2022-07-03T05:42:37;19.90;99.90
26505;DHT22;19493;48.042;7.584;2022-07-03T05:45:03;20.10;99.90
26505;DHT22;19493;48.042;7.584;2022-07-03T05:47:28;20.20;99.90
26505;DHT22;19493;48.042;7.584;2022-07-03T05:49:54;20.10;99.90
26505;DHT22;19493;48.042;7.584;2022-07-03T05:52:20;19.90;99.90
26505;DHT22;19493;48.042;7.584;2022-07-03T05:54:46;19.80;99.90
26505;DHT22;19493;48.042;7.584;2022-07-03T05:57:12;19.70;99.90
26505;DHT22;19493;48.042;7.584;2022-07-03T05:59:38;19.60;99.90
26505;DHT22;19493;48.042;7.584;2022-07-03T06:02:04;19.60;99.90
26505;DHT22;19493;48.042;7.584;2022-07-03T06:04:29;19.60;99.90
26505;DHT22;19493;48.042;7.584;2022-07-03T06:06:55;19.60;99.90
26505;DHT22;19493;48.042;7.584;2022-07-03T06:09:24;19.70;99.90
26505;DHT22;19493;48.042;7.584;2022-07-03T06:11:50;19.80;99.90
26505;DHT22;19493;48.042;7.584;2022-07-03T06:14:16;20.00;99.90
26505;DHT22;19493;48.042;7.584;2022-07-03T06:16:42;20.50;99.90
26505;DHT22;19493;48.042;7.584;2022-07-03T06:19:09;20.90;99.90
26505;DHT22;19493;48.042;7.584;2022-07-03T06:21:35;21.00;99.90
26505;DHT22;19493;48.042;7.584;2022-07-03T06:24:03;21.00;99.90
26505;DHT22;19493;48.042;7.584;2022-07-03T06:26:28;20.80;99.90
26505;DHT22;19493;48.042;7.584;2022-07-03T06:28:55;20.60;99.90
26505;DHT22;19493;48.042;7.584;2022-07-03T06:31:22;20.50;99.90
26505;DHT22;19493;48.042;7.584;2022-07-03T06:33:47;20.40;99.90
26505;DHT22;19493;48.042;7.584;2022-07-03T06:36:13;20.30;99.90
26505;DHT22;19493;48.042;7.584;2022-07-03T06:38:39;20.40;99.90
26505;DHT22;19493;48.042;7.584;2022-07-03T06:41:05;20.40;99.90
26505;DHT22;19493;48.042;7.584;2022-07-03T06:43:34;20.40;99.90
26505;DHT22;19493;48.042;7.584;2022-07-03T06:46:01;20.40;99.90
26505;DHT22;19493;48.042;7.584;2022-07-03T06:48:27;20.40;99.90
26505;DHT22;19493;48.042;7.584;2022-07-03T06:50:55;20.60;99.90
26505;DHT22;19493;48.042;7.584;2022-07-03T06:53:20;20.60;99.90
26505;DHT22;19493;48.042;7.584;2022-07-03T06:55:46;20.70;99.90
26505;DHT22;19493;48.042;7.584;2022-07-03T06:58:11;20.80;99.90
26505;DHT22;19493;48.042;7.584;2022-07-03T07:00:38;20.90;99.90
26505;DHT22;19493;48.042;7.584;2022-07-03T07:03:04;21.00;99.90
26505;DHT22;19493;48.042;7.584;2022-07-03T07:05:30;21.10;99.90
26505;DHT22;19493;48.042;7.584;2022-07-03T07:07:55;21.30;99.90
26505;DHT22;19493;48.042;7.584;2022-07-03T07:10:21;21.40;99.90
26505;DHT22;19493;48.042;7.584;2022-07-03T07:12:46;21.50;99.90
26505;DHT22;19493;48.042;7.584;2022-07-03T07:15:12;21.70;99.90
26505;DHT22;19493;48.042;7.584;2022-07-03T07:17:41;21.70;99.90
26505;DHT22;19493;48.042;7.584;2022-07-03T07:20:07;21.90;99.90
26505;DHT22;19493;48.042;7.584;2022-07-03T07:22:33;22.00;99.90
26505;DHT22;19493;48.042;7.584;2022-07-03T07:25:00;22.20;99.90
26505;DHT22;19493;48.042;7.584;2022-07-03T07:27:26;22.30;99.90
26505;DHT22;19493;48.042;7.584;2022-07-03T07:29:51;22.40;99.90
26505;DHT22;19493;48.042;7.584;2022-07-03T07:32:17;22.50;99.90
26505;DHT22;19493;48.042;7.584;2022-07-03T07:34:42;22.60;99.90
26505;DHT22;19493;48.042;7.584;2022-07-03T07:37:08;22.70;99.90
26505;DHT22;19493;48.042;7.584;2022-07-03T07:39:34;22.80;99.90
26505;DHT22;19493;48.042;7.584;2022-07-03T07:41:59;23.00;99.90
26505;DHT22;19493;48.042;7.584;2022-07-03T07:44:25;23.10;99.90
26505;DHT22;19493;48.042;7.584;2022-07-03T07:46:50;23.20;99.90
26505;DHT22;19493;48.042;7.584;2022-07-03T07:49:16;23.30;99.90
26505;DHT22;19493;48.042;7.584;2022-07-03T07:51:42;23.50;99.90
26505;DHT22;19493;48.042;7.584;2022-07-03T07:54:07;23.60;99.90
26505;DHT22;19493;48.042;7.584;2022-07-03T07:56:33;23.70;99.90
26505;DHT22;19493;48.042;7.584;2022-07-03T07:58:58;23.70;99.90
26505;DHT22;19493;48.042;7.584;2022-07-03T08:01:24;23.80;99.90
26505;DHT22;19493;48.042;7.584;2022-07-03T08:04:08;24.00;99.90
26505;DHT22;19493;48.042;7.584;2022-07-03T08:06:52;24.10;99.90
26505;DHT22;19493;48.042;7.584;2022-07-03T08:09:18;24.30;99.90
26505;DHT22;19493;48.042;7.584;2022-07-03T08:11:43;24.40;99.90
26505;DHT22;19493;48.042;7.584;2022-07-03T08:14:09;24.40;99.90
26505;DHT22;19493;48.042;7.584;2022-07-03T08:16:38;24.40;99.90
26505;DHT22;19493;48.042;7.584;2022-07-03T08:19:12;24.60;99.90
26505;DHT22;19493;48.042;7.584;2022-07-03T08:21:37;24.70;99.90
26505;DHT22;19493;48.042;7.584;2022-07-03T08:24:03;24.90;99.90
26505;DHT22;19493;48.042;7.584;2022-07-03T08:26:29;25.10;99.90
26505;DHT22;19493;48.042;7.584;2022-07-03T08:28:54;25.30;99.90
26505;DHT22;19493;48.042;7.584;2022-07-03T08:31:20;25.40;97.20
26505;DHT22;19493;48.042;7.584;2022-07-03T08:33:45;25.40;95.60
26505;DHT22;19493;48.042;7.584;2022-07-03T08:36:11;25.50;96.40
26505;DHT22;19493;48.042;7.584;2022-07-03T08:38:37;25.70;93.70
26505;DHT22;19493;48.042;7.584;2022-07-03T08:41:03;25.90;92.20
26505;DHT22;19493;48.042;7.584;2022-07-03T08:43:29;26.00;90.40
26505;DHT22;19493;48.042;7.584;2022-07-03T08:45:56;26.10;90.00
26505;DHT22;19493;48.042;7.584;2022-07-03T08:48:22;26.10;85.50
26505;DHT22;19493;48.042;7.584;2022-07-03T08:50:50;26.10;87.60
26505;DHT22;19493;48.042;7.584;2022-07-03T08:53:18;26.20;87.10
26505;DHT22;19493;48.042;7.584;2022-07-03T08:55:45;26.40;85.90
26505;DHT22;19493;48.042;7.584;2022-07-03T08:58:12;26.50;82.40
26505;DHT22;19493;48.042;7.584;2022-07-03T09:00:38;26.60;78.70
26505;DHT22;19493;48.042;7.584;2022-07-03T09:03:09;26.60;78.90
26505;DHT22;19493;48.042;7.584;2022-07-03T09:05:35;26.90;77.60
26505;DHT22;19493;48.042;7.584;2022-07-03T09:08:02;27.00;74.50
26505;DHT22;19493;48.042;7.584;2022-07-03T09:10:28;27.40;73.50
26505;DHT22;19493;48.042;7.584;2022-07-03T09:12:55;28.60;62.50
26505;DHT22;19493;48.042;7.584;2022-07-03T09:15:21;29.60;57.00
26505;DHT22;19493;48.042;7.584;2022-07-03T09:17:56;30.70;54.10
26505;DHT22;19493;48.042;7.584;2022-07-03T09:20:31;31.20;53.00
26505;DHT22;19493;48.042;7.584;2022-07-03T09:25:33;32.30;43.50
26505;DHT22;19493;48.042;7.584;2022-07-03T09:27:59;32.70;44.40
26505;DHT22;19493;48.042;7.584;2022-07-03T09:30:25;32.90;42.50
26505;DHT22;19493;48.042;7.584;2022-07-03T09:32:52;33.40;42.10
26505;DHT22;19493;48.042;7.584;2022-07-03T09:35:25;33.50;42.30
26505;DHT22;19493;48.042;7.584;2022-07-03T09:37:59;33.90;39.00
26505;DHT22;19493;48.042;7.584;2022-07-03T09:40:46;34.00;38.80
26505;DHT22;19493;48.042;7.584;2022-07-03T09:43:12;34.10;38.80
26505;DHT22;19493;48.042;7.584;2022-07-03T09:45:57;34.50;37.70
26505;DHT22;19493;48.042;7.584;2022-07-03T09:48:36;34.40;37.50
26505;DHT22;19493;48.042;7.584;2022-07-03T09:51:20;34.40;35.70
26505;DHT22;19493;48.042;7.584;2022-07-03T09:53:52;34.60;37.40
26505;DHT22;19493;48.042;7.584;2022-07-03T09:56:20;34.60;37.00
26505;DHT22;19493;48.042;7.584;2022-07-03T09:59:12;35.00;36.80
26505;DHT22;19493;48.042;7.584;2022-07-03T10:01:42;34.90;37.70
26505;DHT22;19493;48.042;7.584;2022-07-03T10:06:54;35.10;33.50
26505;DHT22;19493;48.042;7.584;2022-07-03T10:09:28;34.90;34.70
26505;DHT22;19493;48.042;7.584;2022-07-03T10:11:54;35.20;35.70
26505;DHT22;19493;48.042;7.584;2022-07-03T10:14:23;35.60;33.60
26505;DHT22;19493;48.042;7.584;2022-07-03T10:16:49;35.70;33.20
26505;DHT22;19493;48.042;7.584;2022-07-03T10:19:21;36.10;32.90
26505;DHT22;19493;48.042;7.584;2022-07-03T10:22:02;36.00;30.50
26505;DHT22;19493;48.042;7.584;2022-07-03T10:24:31;35.70;29.50
26505;DHT22;19493;48.042;7.584;2022-07-03T10:26:58;35.20;29.90
26505;DHT22;19493;48.042;7.584;2022-07-03T10:29:26;35.40;31.60
26505;DHT22;19493;48.042;7.584;2022-07-03T10:31:52;36.10;32.50
26505;DHT22;19493;48.042;7.584;2022-07-03T10:34:20;36.30;31.50
26505;DHT22;19493;48.042;7.584;2022-07-03T10:36:49;36.80;31.50
26505;DHT22;19493;48.042;7.584;2022-07-03T10:42:04;36.90;28.20
26505;DHT22;19493;48.042;7.584;2022-07-03T10:45:09;37.10;29.80
26505;DHT22;19493;48.042;7.584;2022-07-03T10:47:48;37.60;30.00
26505;DHT22;19493;48.042;7.584;2022-07-03T10:50:16;37.90;29.90
26505;DHT22;19493;48.042;7.584;2022-07-03T10:52:42;38.10;29.90
26505;DHT22;19493;48.042;7.584;2022-07-03T10:55:08;38.00;30.60
26505;DHT22;19493;48.042;7.584;2022-07-03T10:57:35;38.40;30.50
26505;DHT22;19493;48.042;7.584;2022-07-03T11:00:04;38.80;31.70
26505;DHT22;19493;48.042;7.584;2022-07-03T11:02:45;39.10;29.80
26505;DHT22;19493;48.042;7.584;2022-07-03T11:08:03;39.40;28.40
26505;DHT22;19493;48.042;7.584;2022-07-03T11:10:31;39.60;30.50
26505;DHT22;19493;48.042;7.584;2022-07-03T11:13:06;39.50;28.80
26505;DHT22;19493;48.042;7.584;2022-07-03T11:23:28;39.90;29.90
26505;DHT22;19493;48.042;7.584;2022-07-03T11:25:57;39.50;29.40
26505;DHT22;19493;48.042;7.584;2022-07-03T11:33:44;39.20;29.40
26505;DHT22;19493;48.042;7.584;2022-07-03T11:36:11;39.30;30.10
26505;DHT22;19493;48.042;7.584;2022-07-03T11:38:37;39.60;30.00
26505;DHT22;19493;48.042;7.584;2022-07-03T11:41:07;39.40;30.00
26505;DHT22;19493;48.042;7.584;2022-07-03T11:43:33;39.90;29.70
26505;DHT22;19493;48.042;7.584;2022-07-03T11:46:03;40.20;29.30
26505;DHT22;19493;48.042;7.584;2022-07-03T11:48:31;40.40;29.10
26505;DHT22;19493;48.042;7.584;2022-07-03T11:51:04;40.10;28.70
26505;DHT22;19493;48.042;7.584;2022-07-03T11:53:32;39.30;29.90
26505;DHT22;19493;48.042;7.584;2022-07-03T11:56:02;38.80;29.90
26505;DHT22;19493;48.042;7.584;2022-07-03T12:01:08;39.70;30.70
26505;DHT22;19493;48.042;7.584;2022-07-03T12:03:34;39.80;31.00
26505;DHT22;19493;48.042;7.584;2022-07-03T12:06:00;39.30;30.40
26505;DHT22;19493;48.042;7.584;2022-07-03T12:08:28;38.30;30.40
26505;DHT22;19493;48.042;7.584;2022-07-03T12:10:59;37.70;31.30
26505;DHT22;19493;48.042;7.584;2022-07-03T12:13:26;38.60;31.00
26505;DHT22;19493;48.042;7.584;2022-07-03T12:15:52;39.30;31.50
26505;DHT22;19493;48.042;7.584;2022-07-03T12:18:18;39.00;29.90
26505;DHT22;19493;48.042;7.584;2022-07-03T12:20:43;38.10;31.80
26505;DHT22;19493;48.042;7.584;2022-07-03T12:23:09;38.60;30.70
26505;DHT22;19493;48.042;7.584;2022-07-03T12:25:41;39.30;30.20
26505;DHT22;19493;48.042;7.584;2022-07-03T12:28:09;40.40;30.60
26505;DHT22;19493;48.042;7.584;2022-07-03T12:30:36;40.80;28.90
26505;DHT22;19493;48.042;7.584;2022-07-03T12:33:02;40.70;29.90
26505;DHT22;19493;48.042;7.584;2022-07-03T12:35:28;40.40;28.50
26505;DHT22;19493;48.042;7.584;2022-07-03T12:37:54;39.70;28.60
26505;DHT22;19493;48.042;7.584;2022-07-03T12:40:19;40.20;29.30
26505;DHT22;19493;48.042;7.584;2022-07-03T12:42:53;40.80;29.50
26505;DHT22;19493;48.042;7.584;2022-07-03T12:45:20;40.80;29.30
26505;DHT22;19493;48.042;7.584;2022-07-03T12:48:00;40.60;27.80
26505;DHT22;19493;48.042;7.584;2022-07-03T12:50:26;41.00;28.30
26505;DHT22;19493;48.042;7.584;2022-07-03T12:52:54;40.70;29.10
26505;DHT22;19493;48.042;7.584;2022-07-03T12:55:28;41.40;29.70
26505;DHT22;19493;48.042;7.584;2022-07-03T12:58:30;42.00;30.10
26505;DHT22;19493;48.042;7.584;2022-07-03T13:03:50;42.90;28.60
26505;DHT22;19493;48.042;7.584;2022-07-03T13:06:15;42.90;28.10
26505;DHT22;19493;48.042;7.584;2022-07-03T13:14:03;42.20;27.50
26505;DHT22;19493;48.042;7.584;2022-07-03T13:16:29;41.80;27.50
26505;DHT22;19493;48.042;7.584;2022-07-03T13:19:04;41.70;27.30
26505;DHT22;19493;48.042;7.584;2022-07-03T13:21:29;41.70;27.10
26505;DHT22;19493;48.042;7.584;2022-07-03T13:23:56;42.20;27.50
26505;DHT22;19493;48.042;7.584;2022-07-03T13:26:22;42.90;27.30
26505;DHT22;19493;48.042;7.584;2022-07-03T13:28:48;43.70;26.70
26505;DHT22;19493;48.042;7.584;2022-07-03T13:31:14;43.60;26.30
26505;DHT22;19493;48.042;7.584;2022-07-03T13:33:39;43.10;25.80
26505;DHT22;19493;48.042;7.584;2022-07-03T13:36:05;43.00;26.20
26505;DHT22;19493;48.042;7.584;2022-07-03T13:38:31;42.60;26.50
26505;DHT22;19493;48.042;7.584;2022-07-03T13:40:56;42.60;26.20
26505;DHT22;19493;48.042;7.584;2022-07-03T13:43:22;42.50;25.90
26505;DHT22;19493;48.042;7.584;2022-07-03T13:45:47;42.20;26.00
26505;DHT22;19493;48.042;7.584;2022-07-03T13:48:13;42.40;26.80
26505;DHT22;19493;48.042;7.584;2022-07-03T13:50:42;42.40;26.00
26505;DHT22;19493;48.042;7.584;2022-07-03T13:53:07;42.90;26.40
26505;DHT22;19493;48.042;7.584;2022-07-03T13:55:33;43.50;25.90
26505;DHT22;19493;48.042;7.584;2022-07-03T13:57:58;43.70;24.10
26505;DHT22;19493;48.042;7.584;2022-07-03T14:00:24;43.30;24.70
26505;DHT22;19493;48.042;7.584;2022-07-03T14:02:50;43.20;24.20
26505;DHT22;19493;48.042;7.584;2022-07-03T14:05:15;42.30;24.20
26505;DHT22;19493;48.042;7.584;2022-07-03T14:07:41;42.10;24.50
26505;DHT22;19493;48.042;7.584;2022-07-03T14:10:07;41.70;24.60
26505;DHT22;19493;48.042;7.584;2022-07-03T14:12:33;41.40;25.10
26505;DHT22;19493;48.042;7.584;2022-07-03T14:14:58;41.50;25.60
26505;DHT22;19493;48.042;7.584;2022-07-03T14:17:24;41.70;25.40
26505;DHT22;19493;48.042;7.584;2022-07-03T14:19:52;41.30;25.00
26505;DHT22;19493;48.042;7.584;2022-07-03T14:22:17;40.80;25.70
26505;DHT22;19493;48.042;7.584;2022-07-03T14:24:43;40.60;25.40
26505;DHT22;19493;48.042;7.584;2022-07-03T14:27:09;40.30;25.80
26505;DHT22;19493;48.042;7.584;2022-07-03T14:29:54;40.30;26.50
26505;DHT22;19493;48.042;7.584;2022-07-03T14:35:05;39.50;26.90
26505;DHT22;19493;48.042;7.584;2022-07-03T14:37:30;38.70;27.50
26505;DHT22;19493;48.042;7.584;2022-07-03T14:39:56;39.40;27.00
26505;DHT22;19493;48.042;7.584;2022-07-03T14:42:22;40.40;26.40
26505;DHT22;19493;48.042;7.584;2022-07-03T14:44:47;40.40;25.90
26505;DHT22;19493;48.042;7.584;2022-07-03T14:47:13;40.20;26.40
26505;DHT22;19493;48.042;7.584;2022-07-03T14:49:39;40.50;26.70
26505;DHT22;19493;48.042;7.584;2022-07-03T14:52:06;40.90;26.20
26505;DHT22;19493;48.042;7.584;2022-07-03T14:54:32;41.70;26.30
26505;DHT22;19493;48.042;7.584;2022-07-03T14:57:00;41.70;25.70
26505;DHT22;19493;48.042;7.584;2022-07-03T15:05:10;42.00;25.50
26505;DHT22;19493;48.042;7.584;2022-07-03T15:07:44;41.50;25.90
26505;DHT22;19493;48.042;7.584;2022-07-03T15:10:13;41.40;26.40
26505;DHT22;19493;48.042;7.584;2022-07-03T15:12:55;41.20;25.50
26505;DHT22;19493;48.042;7.584;2022-07-03T15:15:22;41.20;25.80
26505;DHT22;19493;48.042;7.584;2022-07-03T15:17:51;41.10;25.50
26505;DHT22;19493;48.042;7.584;2022-07-03T15:20:18;40.80;26.50
26505;DHT22;19493;48.042;7.584;2022-07-03T15:22:45;41.10;26.80
26505;DHT22;19493;48.042;7.584;2022-07-03T15:25:16;41.60;26.20
26505;DHT22;19493;48.042;7.584;2022-07-03T15:27:41;41.80;26.00
26505;DHT22;19493;48.042;7.584;2022-07-03T15:30:10;41.20;26.20
26505;DHT22;19493;48.042;7.584;2022-07-03T15:32:37;40.40;26.50
26505;DHT22;19493;48.042;7.584;2022-07-03T15:35:03;39.70;27.00
26505;DHT22;19493;48.042;7.584;2022-07-03T15:40:21;39.50;27.80
26505;DHT22;19493;48.042;7.584;2022-07-03T15:53:40;40.50;26.40
26505;DHT22;19493;48.042;7.584;2022-07-03T15:56:11;41.00;26.60
26505;DHT22;19493;48.042;7.584;2022-07-03T15:58:40;41.50;26.40
26505;DHT22;19493;48.042;7.584;2022-07-03T16:01:12;41.20;26.20
26505;DHT22;19493;48.042;7.584;2022-07-03T16:04:03;40.00;27.30
26505;DHT22;19493;48.042;7.584;2022-07-03T16:06:33;38.10;28.50
26505;DHT22;19493;48.042;7.584;2022-07-03T16:08:59;37.80;29.20
26505;DHT22;19493;48.042;7.584;2022-07-03T16:11:25;37.20;29.90
26505;DHT22;19493;48.042;7.584;2022-07-03T16:13:52;37.40;30.10
26505;DHT22;19493;48.042;7.584;2022-07-03T16:16:21;37.70;30.60
26505;DHT22;19493;48.042;7.584;2022-07-03T16:18:49;38.00;30.10
26505;DHT22;19493;48.042;7.584;2022-07-03T16:21:16;37.50;30.70
26505;DHT22;19493;48.042;7.584;2022-07-03T16:23:44;37.40;31.20
26505;DHT22;19493;48.042;7.584;2022-07-03T16:26:10;36.80;31.80
26505;DHT22;19493;48.042;7.584;2022-07-03T16:31:05;35.80;30.10
26505;DHT22;19493;48.042;7.584;2022-07-03T16:33:36;35.70;29.90
26505;DHT22;19493;48.042;7.584;2022-07-03T16:36:18;35.60;29.30
26505;DHT22;19493;48.042;7.584;2022-07-03T16:38:51;35.20;30.00
26505;DHT22;19493;48.042;7.584;2022-07-03T16:41:19;35.80;30.60
26505;DHT22;19493;48.042;7.584;2022-07-03T16:43:47;36.90;28.30
26505;DHT22;19493;48.042;7.584;2022-07-03T16:46:17;37.40;27.80
26505;DHT22;19493;48.042;7.584;2022-07-03T16:48:48;37.50;28.90
26505;DHT22;19493;48.042;7.584;2022-07-03T16:51:18;37.80;27.40
26505;DHT22;19493;48.042;7.584;2022-07-03T16:53:44;37.90;27.90
26505;DHT22;19493;48.042;7.584;2022-07-03T16:56:12;37.40;28.30
26505;DHT22;19493;48.042;7.584;2022-07-03T16:58:39;37.20;28.80
26505;DHT22;19493;48.042;7.584;2022-07-03T17:01:07;36.60;28.30
26505;DHT22;19493;48.042;7.584;2022-07-03T17:03:33;35.50;29.30